Time;durP1;ratioP1;P1;durP2;ratioP2;P2;SDS_P1;SDS_P2;PMS_P1;PMS_P2;Temp;Humidity;BMP_temperature;BMP_pressure;BME280_temperature;BME280_humidity;BME280_pressure;Samples;Min_cycle;Max_cycle;Signal;HPM_P1;HPM_P2
2023/05/03 00:00:16;;;;;;;7.33;6.73;;;12.10;70.70;;;;;;5040860;28;21182;-90
2023/05/03 00:02:47;;;;;;;8.23;7.43;;;12.10;70.30;;;;;;5040415;28;20176;-87
2023/05/03 00:05:22;;;;;;;7.13;6.30;;;12.00;70.90;;;;;;5075825;28;20208;-89
2023/05/03 00:07:51;;;;;;;7.77;7.03;;;12.10;70.90;;;;;;5080032;28;20831;-89
2023/05/03 00:10:20;;;;;;;8.13;7.30;;;12.10;70.60;;;;;;5063505;28;20178;-88
2023/05/03 00:12:55;;;;;;;8.00;6.70;;;12.00;71.30;;;;;;5081405;28;20170;-88
2023/05/03 00:15:33;;;;;;;7.90;7.00;;;12.10;71.00;;;;;;5081339;28;20197;-88
2023/05/03 00:18:06;;;;;;;7.73;7.00;;;12.10;71.10;;;;;;5064945;28;20211;-88
2023/05/03 00:20:36;;;;;;;7.80;7.00;;;12.00;71.30;;;;;;5049957;28;20228;-88
2023/05/03 00:23:11;;;;;;;7.53;6.70;;;12.00;71.50;;;;;;5043319;28;20168;-89
2023/05/03 00:25:37;;;;;;;7.53;6.93;;;12.00;71.50;;;;;;5061781;28;20164;-89
2023/05/03 00:28:15;;;;;;;7.17;6.47;;;12.10;71.60;;;;;;5043928;28;20718;-90
2023/05/03 00:30:44;;;;;;;8.33;7.30;;;12.00;71.80;;;;;;5044309;28;20318;-87
2023/05/03 00:33:10;;;;;;;7.63;6.87;;;11.90;72.20;;;;;;5060612;28;20176;-88
2023/05/03 00:35:41;;;;;;;8.07;7.27;;;11.80;73.10;;;;;;5062276;28;20192;-87
2023/05/03 00:38:13;;;;;;;8.20;7.50;;;11.80;73.30;;;;;;5078466;28;20227;-88
2023/05/03 00:40:38;;;;;;;8.10;7.40;;;11.80;73.50;;;;;;5050383;28;20212;-88
2023/05/03 00:43:05;;;;;;;8.67;7.80;;;11.80;73.20;;;;;;5056223;28;20203;-88
2023/05/03 00:45:33;;;;;;;8.70;7.90;;;11.80;73.40;;;;;;5021893;28;20203;-88
2023/05/03 00:48:05;;;;;;;8.40;7.63;;;11.80;73.60;;;;;;5039282;28;20197;-88
2023/05/03 00:50:30;;;;;;;7.50;6.90;;;11.80;73.60;;;;;;5022926;28;20691;-89
2023/05/03 00:53:03;;;;;;;8.57;7.70;;;11.80;73.10;;;;;;5054849;28;20184;-88
2023/05/03 00:55:41;;;;;;;8.27;7.57;;;11.70;74.00;;;;;;5060674;28;20585;-90
2023/05/03 00:58:10;;;;;;;9.10;7.17;;;11.60;74.90;;;;;;5057227;28;20312;-89
2023/05/03 01:00:36;;;;;;;7.27;6.67;;;11.70;74.90;;;;;;5042799;28;20204;-89
2023/05/03 01:03:12;;;;;;;8.60;7.60;;;11.80;74.50;;;;;;5061615;28;20187;-89
2023/05/03 01:05:55;;;;;;;8.37;7.30;;;11.70;74.50;;;;;;5043998;28;20172;-89
2023/05/03 01:09:09;;;;;;;7.90;6.77;;;11.70;74.10;;;;;;5053387;28;20175;-88
2023/05/03 01:12:02;;;;;;;7.73;6.97;;;11.70;74.60;;;;;;4977974;28;20184;-89
2023/05/03 01:14:41;;;;;;;7.50;6.77;;;11.70;74.30;;;;;;5081495;28;20204;-88
2023/05/03 01:17:13;;;;;;;8.00;7.30;;;11.70;74.70;;;;;;5078678;28;20280;-89
2023/05/03 01:19:55;;;;;;;8.00;7.30;;;11.80;74.00;;;;;;5079267;28;20201;-89
2023/05/03 01:22:32;;;;;;;8.40;7.50;;;11.90;73.80;;;;;;5079920;28;20581;-89
2023/05/03 01:25:20;;;;;;;8.00;7.20;;;11.90;73.20;;;;;;5067313;28;20169;-87
2023/05/03 01:27:46;;;;;;;7.83;7.13;;;11.80;74.00;;;;;;5058461;28;20201;-88
2023/05/03 01:30:24;;;;;;;7.47;6.87;;;11.80;74.10;;;;;;5057961;28;20199;-89
2023/05/03 01:33:25;;;;;;;7.30;6.70;;;11.80;73.90;;;;;;5058996;28;20153;-87
2023/05/03 01:36:00;;;;;;;7.00;6.33;;;11.80;74.20;;;;;;5056633;28;20195;-88
2023/05/03 01:38:39;;;;;;;8.13;7.33;;;11.50;75.70;;;;;;5033932;28;20319;-87
2023/05/03 01:41:10;;;;;;;7.17;6.47;;;11.50;76.00;;;;;;5057383;28;20282;-88
2023/05/03 01:43:38;;;;;;;7.67;7.03;;;11.40;76.30;;;;;;5040340;28;20200;-88
2023/05/03 01:46:08;;;;;;;7.73;7.13;;;11.40;76.10;;;;;;5042483;28;20199;-88
2023/05/03 01:48:37;;;;;;;8.90;8.20;;;11.40;76.60;;;;;;5058087;28;20172;-88
2023/05/03 01:51:03;;;;;;;8.53;7.73;;;11.40;76.80;;;;;;5080768;28;20183;-89
2023/05/03 01:53:40;;;;;;;7.37;6.77;;;11.30;76.80;;;;;;5062714;28;20274;-89
2023/05/03 01:56:09;;;;;;;8.97;8.17;;;11.40;77.00;;;;;;5080169;28;20195;-89
2023/05/03 01:58:40;;;;;;;9.47;7.90;;;11.30;76.90;;;;;;5079862;28;20179;-88
2023/05/03 02:01:12;;;;;;;7.80;7.10;;;11.30;77.30;;;;;;5078786;28;20206;-89
2023/05/03 02:03:53;;;;;;;7.60;6.83;;;11.10;78.10;;;;;;5072226;28;20164;-88
2023/05/03 02:06:19;;;;;;;8.70;7.13;;;10.90;78.70;;;;;;5058510;28;20211;-89
2023/05/03 02:08:48;;;;;;;7.53;6.90;;;10.80;79.30;;;;;;5062072;28;20282;-89
2023/05/03 02:11:20;;;;;;;7.63;6.90;;;10.80;79.70;;;;;;5062217;28;20190;-88
2023/05/03 02:13:50;;;;;;;8.30;7.30;;;10.70;79.70;;;;;;5061510;28;20212;-89
2023/05/03 02:16:21;;;;;;;10.63;7.10;;;10.60;80.70;;;;;;5061542;28;20241;-89
2023/05/03 02:18:50;;;;;;;8.33;7.53;;;10.60;80.90;;;;;;5063015;28;20208;-89
2023/05/03 02:21:19;;;;;;;8.67;7.10;;;10.50;81.60;;;;;;5078997;28;20211;-87
2023/05/03 02:23:49;;;;;;;8.57;7.53;;;10.50;81.70;;;;;;5061514;28;20557;-89
2023/05/03 02:26:15;;;;;;;7.90;7.03;;;10.50;81.40;;;;;;5079685;28;20217;-87
2023/05/03 02:28:50;;;;;;;8.43;7.63;;;10.50;80.90;;;;;;5060251;28;20205;-88
2023/05/03 02:31:16;;;;;;;10.63;7.90;;;10.30;81.70;;;;;;5081148;28;20189;-88
2023/05/03 02:33:47;;;;;;;8.37;7.57;;;10.10;83.10;;;;;;5055449;28;20215;-87
2023/05/03 02:36:15;;;;;;;8.27;7.37;;;10.10;83.60;;;;;;5036589;28;20214;-88
2023/05/03 02:38:46;;;;;;;8.40;7.60;;;10.20;83.50;;;;;;5037346;28;20284;-88
2023/05/03 02:41:13;;;;;;;8.87;7.33;;;10.10;83.10;;;;;;5056135;28;20208;-89
2023/05/03 02:43:45;;;;;;;11.37;7.57;;;10.10;83.40;;;;;;5058240;28;20218;-89
2023/05/03 02:46:14;;;;;;;8.20;7.40;;;10.00;83.60;;;;;;5041163;28;20206;-88
2023/05/03 02:48:40;;;;;;;7.73;6.80;;;10.00;83.70;;;;;;5061548;28;20172;-89
2023/05/03 02:51:08;;;;;;;8.70;7.67;;;9.90;84.20;;;;;;5072515;28;20240;-89
2023/05/03 02:53:34;;;;;;;8.93;8.07;;;10.00;84.50;;;;;;5058776;28;20188;-89
2023/05/03 02:56:00;;;;;;;8.77;8.03;;;10.00;83.50;;;;;;5041000;28;20206;-87
2023/05/03 02:58:29;;;;;;;10.33;8.87;;;10.10;83.70;;;;;;5041742;28;20197;-89
2023/05/03 03:00:55;;;;;;;8.70;7.83;;;10.10;83.40;;;;;;5040724;28;20377;-89
2023/05/03 03:03:27;;;;;;;9.23;8.40;;;10.20;82.70;;;;;;5058902;28;20597;-88
2023/05/03 03:06:02;;;;;;;10.03;8.87;;;10.20;82.60;;;;;;5045206;28;20179;-88
2023/05/03 03:08:28;;;;;;;10.07;9.10;;;10.20;82.10;;;;;;5059569;28;20183;-90
2023/05/03 03:10:54;;;;;;;9.43;8.47;;;10.10;82.40;;;;;;5075096;28;20285;-89
2023/05/03 03:13:25;;;;;;;9.73;8.17;;;10.10;82.10;;;;;;5060552;28;20208;-88
2023/05/03 03:15:51;;;;;;;8.70;7.80;;;10.20;81.40;;;;;;5078597;28;20183;-88
2023/05/03 03:18:17;;;;;;;9.73;8.30;;;10.20;81.20;;;;;;5077485;28;20207;-88
2023/05/03 03:20:43;;;;;;;8.73;7.83;;;10.10;80.90;;;;;;5056924;28;20211;-88
2023/05/03 03:23:13;;;;;;;9.77;8.70;;;10.10;80.80;;;;;;5050839;28;20304;-88
2023/05/03 03:25:41;;;;;;;10.57;8.30;;;10.00;81.30;;;;;;5053988;28;20639;-88
2023/05/03 03:28:09;;;;;;;10.53;8.33;;;9.90;81.00;;;;;;5036283;28;20210;-88
2023/05/03 03:30:35;;;;;;;8.83;7.93;;;9.90;81.70;;;;;;5051899;28;20200;-87
2023/05/03 03:33:01;;;;;;;9.60;8.70;;;9.90;82.00;;;;;;5050800;28;20270;-88
2023/05/03 03:35:29;;;;;;;8.80;7.90;;;9.90;81.50;;;;;;5067341;28;20214;-87
2023/05/03 03:37:55;;;;;;;9.20;8.10;;;9.90;81.90;;;;;;5071429;28;20210;-88
2023/05/03 03:40:21;;;;;;;9.67;8.13;;;9.90;81.40;;;;;;5053378;28;20223;-85
2023/05/03 03:42:47;;;;;;;9.50;7.93;;;9.90;80.90;;;;;;5057939;28;20177;-88
2023/05/03 03:45:31;;;;;;;9.93;8.30;;;9.80;81.30;;;;;;5055749;28;20255;-89
2023/05/03 03:48:00;;;;;;;9.03;8.17;;;9.80;81.20;;;;;;5057501;28;20199;-89
2023/05/03 03:50:26;;;;;;;13.40;9.03;;;9.70;81.30;;;;;;5058493;28;20173;-89
2023/05/03 03:52:51;;;;;;;10.77;8.60;;;9.80;81.50;;;;;;5058087;28;20246;-89
2023/05/03 03:55:17;;;;;;;9.37;8.33;;;9.80;81.30;;;;;;5057063;28;20177;-90
2023/05/03 03:57:43;;;;;;;9.23;8.37;;;9.80;81.20;;;;;;5058250;28;20227;-88
2023/05/03 04:00:10;;;;;;;13.23;9.50;;;9.90;80.60;;;;;;5060260;28;20177;-89
2023/05/03 04:02:36;;;;;;;10.23;9.23;;;9.80;80.90;;;;;;5049974;28;20176;-89
2023/05/03 04:05:03;;;;;;;9.90;8.37;;;9.90;81.10;;;;;;5055938;28;20188;-89
2023/05/03 04:07:29;;;;;;;11.47;8.80;;;9.80;81.40;;;;;;5039061;28;20197;-87
2023/05/03 04:09:55;;;;;;;14.53;12.27;;;9.70;82.00;;;;;;5056674;28;20173;-88
2023/05/03 04:12:24;;;;;;;10.53;9.53;;;9.60;82.80;;;;;;5039466;28;20220;-89
2023/05/03 04:14:50;;;;;;;10.83;9.80;;;9.60;82.80;;;;;;5057050;28;20606;-90
2023/05/03 04:17:16;;;;;;;14.57;13.27;;;9.50;83.20;;;;;;5037942;28;20279;-88
2023/05/03 04:19:42;;;;;;;23.47;21.17;;;9.50;83.40;;;;;;5055018;28;20184;-87
2023/05/03 04:22:08;;;;;;;16.40;14.87;;;9.50;83.60;;;;;;5052486;28;20691;-88
2023/05/03 04:24:34;;;;;;;13.20;11.10;;;9.50;83.80;;;;;;5053918;28;20236;-87
2023/05/03 04:27:03;;;;;;;13.00;10.40;;;9.40;83.90;;;;;;5048500;28;20206;-88
2023/05/03 04:29:29;;;;;;;12.17;9.43;;;9.40;84.00;;;;;;5053119;28;20180;-88
2023/05/03 04:31:54;;;;;;;11.43;9.77;;;9.40;84.40;;;;;;5036163;28;20207;-89
2023/05/03 04:34:20;;;;;;;9.73;8.73;;;9.40;84.00;;;;;;5054675;28;20183;-89
2023/05/03 04:36:47;;;;;;;10.20;9.20;;;9.40;84.50;;;;;;5039192;28;20207;-88
2023/05/03 04:39:14;;;;;;;12.07;10.77;;;9.40;84.20;;;;;;5043595;28;20181;-87
2023/05/03 04:41:40;;;;;;;12.87;10.93;;;9.40;83.90;;;;;;5040604;28;20197;-89
2023/05/03 04:44:06;;;;;;;11.23;10.13;;;9.30;84.70;;;;;;5034941;28;20185;-88
2023/05/03 04:46:32;;;;;;;10.23;9.27;;;9.30;84.80;;;;;;5036686;28;20220;-90
2023/05/03 04:48:58;;;;;;;11.03;9.10;;;9.30;84.10;;;;;;5054079;28;20176;-89
2023/05/03 04:51:24;;;;;;;11.87;9.17;;;9.20;84.20;;;;;;5061557;28;20212;-88
2023/05/03 04:53:49;;;;;;;10.57;9.37;;;9.10;85.30;;;;;;5058753;28;20182;-87
2023/05/03 04:56:15;;;;;;;8.87;8.00;;;9.00;85.70;;;;;;5058987;28;20302;-88
2023/05/03 04:58:41;;;;;;;11.80;9.23;;;9.00;86.00;;;;;;5060353;28;20255;-87
2023/05/03 05:01:07;;;;;;;12.87;9.50;;;9.00;85.60;;;;;;5061541;28;20200;-88
2023/05/03 05:03:33;;;;;;;10.63;9.53;;;8.90;85.50;;;;;;5063314;28;20180;-88
2023/05/03 05:05:59;;;;;;;10.50;8.07;;;8.90;85.70;;;;;;5043778;28;20185;-88
2023/05/03 05:08:25;;;;;;;9.00;8.13;;;9.00;85.30;;;;;;5072244;28;20204;-88
2023/05/03 05:10:51;;;;;;;9.77;8.77;;;8.90;85.30;;;;;;5042397;28;20192;-88
2023/05/03 05:13:17;;;;;;;9.80;8.90;;;8.90;85.40;;;;;;5042863;28;20279;-88
2023/05/03 05:15:42;;;;;;;13.27;10.13;;;8.80;86.10;;;;;;5060435;28;20180;-88
2023/05/03 05:18:09;;;;;;;13.80;10.80;;;8.90;86.40;;;;;;5040746;28;20216;-88
2023/05/03 05:20:35;;;;;;;12.37;9.03;;;8.90;86.50;;;;;;5058087;28;20418;-87
2023/05/03 05:23:00;;;;;;;9.80;8.80;;;8.90;86.90;;;;;;5063262;28;20203;-87
2023/05/03 05:25:26;;;;;;;8.83;7.93;;;9.00;85.70;;;;;;5064987;28;20588;-89
2023/05/03 05:27:52;;;;;;;10.90;8.87;;;9.00;87.90;;;;;;5057277;28;20196;-88
2023/05/03 05:30:18;;;;;;;11.57;9.67;;;9.30;86.40;;;;;;5059334;28;20672;-89
2023/05/03 05:32:44;;;;;;;12.57;8.80;;;9.40;85.30;;;;;;5058628;28;20671;-89
2023/05/03 05:35:10;;;;;;;11.80;8.73;;;9.50;83.70;;;;;;5058876;28;20190;-88
2023/05/03 05:37:36;;;;;;;9.50;8.60;;;9.50;83.70;;;;;;5041140;28;20212;-89
2023/05/03 05:40:02;;;;;;;9.70;8.80;;;9.50;83.60;;;;;;5059099;28;20180;-88
2023/05/03 05:42:28;;;;;;;13.90;8.63;;;9.40;84.00;;;;;;5060220;28;20204;-89
2023/05/03 05:44:56;;;;;;;9.80;8.47;;;9.50;86.10;;;;;;5040169;28;20181;-89
2023/05/03 05:47:22;;;;;;;13.60;9.50;;;9.60;84.00;;;;;;5058598;28;20297;-89
2023/05/03 05:49:47;;;;;;;10.20;8.63;;;9.70;83.80;;;;;;5061140;28;20318;-89
2023/05/03 05:52:14;;;;;;;12.50;9.57;;;9.80;82.90;;;;;;5041670;28;20645;-87
2023/05/03 05:54:39;;;;;;;11.67;10.10;;;9.80;82.90;;;;;;5059577;28;20176;-88
2023/05/03 05:57:05;;;;;;;13.53;10.30;;;9.70;83.10;;;;;;5059275;28;20307;-90
2023/05/03 05:59:32;;;;;;;11.73;9.33;;;9.80;83.60;;;;;;5059130;28;20179;-89
2023/05/03 06:01:59;;;;;;;12.97;9.70;;;9.90;83.50;;;;;;5049417;28;20196;-91
2023/05/03 06:04:26;;;;;;;10.57;9.47;;;9.80;83.40;;;;;;5057594;28;20260;-88
2023/05/03 06:06:51;;;;;;;10.03;9.03;;;9.70;84.00;;;;;;5038176;28;20207;-88
2023/05/03 06:09:18;;;;;;;11.10;9.97;;;9.80;84.20;;;;;;5038381;28;20176;-88
2023/05/03 06:11:44;;;;;;;12.50;9.67;;;9.80;84.60;;;;;;5038052;28;20180;-88
2023/05/03 06:14:11;;;;;;;10.23;9.23;;;9.90;84.10;;;;;;5059492;28;20183;-89
2023/05/03 06:16:37;;;;;;;10.70;9.00;;;9.90;84.80;;;;;;5075201;28;20203;-89
2023/05/03 06:19:12;;;;;;;9.40;8.40;;;10.00;84.30;;;;;;5046797;28;20188;-89
2023/05/03 06:21:38;;;;;;;10.30;8.30;;;9.90;84.60;;;;;;5055542;28;20223;-87
2023/05/03 06:24:04;;;;;;;9.67;8.23;;;10.00;84.90;;;;;;5064347;28;20263;-87
2023/05/03 06:26:30;;;;;;;9.90;8.40;;;10.20;83.90;;;;;;5043700;28;20208;-88
2023/05/03 06:28:56;;;;;;;9.67;8.67;;;10.10;84.40;;;;;;5045146;28;20260;-88
2023/05/03 06:31:22;;;;;;;11.87;9.67;;;10.10;84.70;;;;;;5040366;28;20191;-88
2023/05/03 06:33:48;;;;;;;9.37;8.47;;;10.10;85.00;;;;;;5047913;28;20185;-86
2023/05/03 06:36:14;;;;;;;13.80;8.50;;;10.10;83.90;;;;;;5054091;28;20687;-87
2023/05/03 06:38:40;;;;;;;16.23;10.03;;;10.10;85.00;;;;;;5047736;28;20210;-88
2023/05/03 06:41:06;;;;;;;16.00;10.37;;;10.10;84.50;;;;;;5044592;28;20665;-88
2023/05/03 06:43:32;;;;;;;11.73;9.60;;;10.30;84.30;;;;;;5058942;28;20187;-87
2023/05/03 06:46:00;;;;;;;11.57;8.60;;;10.30;84.30;;;;;;5035591;28;20237;-88
2023/05/03 06:48:26;;;;;;;12.03;9.43;;;10.40;83.90;;;;;;5046581;28;20175;-88
2023/05/03 06:50:53;;;;;;;9.83;8.93;;;10.40;83.10;;;;;;5042841;28;20180;-88
2023/05/03 06:53:22;;;;;;;11.07;8.80;;;10.40;84.00;;;;;;5066707;28;20576;-88
2023/05/03 06:55:47;;;;;;;9.30;8.27;;;10.50;83.70;;;;;;5074244;28;20179;-88
2023/05/03 06:58:13;;;;;;;10.13;9.13;;;10.60;83.50;;;;;;5055542;28;20190;-88
2023/05/03 07:00:39;;;;;;;10.07;8.63;;;10.60;83.70;;;;;;5068371;28;20196;-89
2023/05/03 07:03:05;;;;;;;10.10;8.77;;;10.80;83.80;;;;;;5056338;28;20252;-89
2023/05/03 07:05:31;;;;;;;10.37;8.80;;;10.90;82.80;;;;;;5038077;28;20238;-88
2023/05/03 07:07:57;;;;;;;9.83;8.43;;;11.00;82.10;;;;;;5036990;28;20560;-87
2023/05/03 07:10:24;;;;;;;9.80;8.80;;;11.20;81.00;;;;;;5054660;28;20263;-87
2023/05/03 07:12:50;;;;;;;11.80;8.67;;;11.10;81.70;;;;;;5052193;28;20281;-88
2023/05/03 07:15:19;;;;;;;12.33;9.67;;;11.20;81.40;;;;;;5028017;28;20408;-87
2023/05/03 07:17:44;;;;;;;10.93;9.00;;;11.20;81.90;;;;;;5053646;28;20212;-90
2023/05/03 07:20:11;;;;;;;14.20;9.67;;;11.40;81.70;;;;;;5053717;28;20184;-88
2023/05/03 07:22:36;;;;;;;11.47;9.30;;;11.60;79.80;;;;;;5037214;28;20203;-88
2023/05/03 07:25:03;;;;;;;10.47;9.13;;;11.60;79.20;;;;;;5056224;28;20175;-88
2023/05/03 07:27:29;;;;;;;12.13;9.57;;;11.70;79.00;;;;;;5075419;28;20690;-88
2023/05/03 07:29:55;;;;;;;10.93;8.77;;;11.90;78.80;;;;;;5054910;28;20192;-88
2023/05/03 07:32:21;;;;;;;11.63;9.33;;;11.90;78.30;;;;;;5055548;28;20180;-88
2023/05/03 07:34:46;;;;;;;14.07;9.80;;;12.00;77.60;;;;;;5044904;28;20217;-88
2023/05/03 07:37:12;;;;;;;10.37;9.33;;;11.90;78.40;;;;;;5074840;28;20212;-87
2023/05/03 07:39:39;;;;;;;10.70;9.50;;;12.00;78.20;;;;;;5056945;28;20558;-88
2023/05/03 07:42:05;;;;;;;9.87;8.97;;;12.10;78.40;;;;;;5057674;28;20219;-86
2023/05/03 07:44:30;;;;;;;10.60;9.53;;;12.20;78.20;;;;;;5074485;28;20176;-87
2023/05/03 07:46:56;;;;;;;9.83;9.03;;;12.30;77.80;;;;;;5058350;28;20221;-88
2023/05/03 07:49:22;;;;;;;12.27;9.97;;;12.40;76.80;;;;;;5059466;28;20262;-88
2023/05/03 07:51:48;;;;;;;11.80;10.60;;;12.50;77.00;;;;;;5053360;28;20180;-88
2023/05/03 07:54:13;;;;;;;11.10;9.73;;;12.60;76.00;;;;;;5055126;28;20187;-89
2023/05/03 07:56:39;;;;;;;10.63;9.63;;;12.80;76.30;;;;;;5054705;28;20191;-89
2023/05/03 07:59:05;;;;;;;10.70;9.20;;;12.90;75.60;;;;;;5054093;28;20171;-87
2023/05/03 08:01:30;;;;;;;12.40;9.17;;;12.80;75.60;;;;;;5055606;28;20212;-91
2023/05/03 08:03:57;;;;;;;11.70;9.63;;;13.00;75.10;;;;;;5059303;28;20174;-87
2023/05/03 08:06:23;;;;;;;11.17;8.93;;;12.90;75.40;;;;;;5076168;28;20875;-88
2023/05/03 08:08:49;;;;;;;12.97;8.90;;;13.00;75.00;;;;;;5057382;28;20178;-87
2023/05/03 08:11:15;;;;;;;11.47;9.67;;;13.10;75.20;;;;;;5056433;28;20278;-88
2023/05/03 08:13:41;;;;;;;12.03;9.20;;;13.30;73.60;;;;;;5052852;28;20172;-88
2023/05/03 08:16:07;;;;;;;11.20;9.60;;;13.50;73.30;;;;;;5054146;28;20290;-90
2023/05/03 08:18:33;;;;;;;11.30;10.20;;;13.70;72.70;;;;;;5056100;28;20173;-88
2023/05/03 08:20:58;;;;;;;11.00;9.03;;;13.80;72.00;;;;;;5069723;28;20208;-87
2023/05/03 08:23:24;;;;;;;10.73;9.60;;;13.80;72.40;;;;;;5080923;28;20192;-88
2023/05/03 08:25:50;;;;;;;15.73;9.53;;;13.90;72.30;;;;;;5038578;28;20187;-87
2023/05/03 08:28:16;;;;;;;10.80;9.70;;;14.00;71.60;;;;;;5055765;28;20207;-90
2023/05/03 08:30:41;;;;;;;11.17;9.53;;;14.20;70.50;;;;;;5041564;28;20192;-89
2023/05/03 08:33:10;;;;;;;10.60;9.47;;;14.30;69.80;;;;;;5060326;28;20248;-88
2023/05/03 08:35:36;;;;;;;10.10;9.10;;;14.60;70.20;;;;;;5057698;28;20183;-89
2023/05/03 08:38:03;;;;;;;13.70;9.03;;;14.70;68.70;;;;;;5057552;28;20196;-88
2023/05/03 08:40:31;;;;;;;10.20;9.10;;;14.70;69.00;;;;;;5055889;28;20256;-89
2023/05/03 08:43:05;;;;;;;11.10;9.77;;;14.80;68.60;;;;;;5058094;28;20182;-90
2023/05/03 08:45:32;;;;;;;11.33;8.93;;;15.00;67.70;;;;;;5043943;28;20507;-88
2023/05/03 08:48:00;;;;;;;10.80;9.67;;;15.00;67.40;;;;;;5075925;28;20203;-89
2023/05/03 08:50:26;;;;;;;12.33;9.80;;;15.20;66.50;;;;;;5057153;28;20602;-88
2023/05/03 08:52:52;;;;;;;10.53;9.43;;;15.30;66.40;;;;;;5075962;28;20233;-89
2023/05/03 08:55:18;;;;;;;11.43;10.23;;;15.20;66.50;;;;;;5050589;28;20293;-89
2023/05/03 08:57:43;;;;;;;10.00;9.10;;;15.20;66.00;;;;;;5056100;28;20207;-89
2023/05/03 09:00:10;;;;;;;10.30;9.37;;;15.30;66.90;;;;;;5059020;28;20431;-89
2023/05/03 09:02:40;;;;;;;10.80;9.70;;;15.50;65.90;;;;;;5057826;28;20247;-90
2023/05/03 09:05:28;;;;;;;11.07;9.93;;;15.60;65.30;;;;;;5054928;28;20176;-88
2023/05/03 09:08:09;;;;;;;10.90;9.90;;;15.90;64.90;;;;;;5050204;28;20637;-89
2023/05/03 09:10:39;;;;;;;12.73;9.33;;;16.00;63.30;;;;;;5048423;28;20550;-90
2023/05/03 09:13:06;;;;;;;11.13;10.10;;;16.10;63.70;;;;;;5035180;28;20179;-89
2023/05/03 09:15:32;;;;;;;11.67;9.17;;;16.20;63.10;;;;;;5054782;28;20436;-89
2023/05/03 09:18:17;;;;;;;10.97;9.50;;;16.40;62.60;;;;;;5054388;28;20206;-89
2023/05/03 09:20:50;;;;;;;12.43;9.73;;;16.50;62.70;;;;;;5062029;28;20740;-89
2023/05/03 09:23:36;;;;;;;10.43;9.53;;;16.40;62.20;;;;;;5071045;28;20208;-88
2023/05/03 09:26:02;;;;;;;15.37;9.27;;;16.40;61.70;;;;;;5073338;28;20270;-89
2023/05/03 09:28:27;;;;;;;11.07;9.97;;;16.70;62.30;;;;;;5060184;28;20633;-88
2023/05/03 09:31:05;;;;;;;10.93;9.87;;;17.00;60.40;;;;;;5055795;28;20180;-88
2023/05/03 09:33:32;;;;;;;11.10;10.10;;;17.00;61.00;;;;;;5055250;28;20314;-88
2023/05/03 09:36:00;;;;;;;10.93;9.73;;;17.20;59.90;;;;;;5055643;28;20184;-89
2023/05/03 09:38:28;;;;;;;10.53;9.53;;;17.30;59.40;;;;;;5041469;28;20187;-89
2023/05/03 09:40:57;;;;;;;10.83;9.70;;;17.40;59.30;;;;;;5049223;28;20576;-89
2023/05/03 09:43:23;;;;;;;10.67;9.63;;;17.50;59.20;;;;;;5056824;28;20211;-88
2023/05/03 09:45:49;;;;;;;12.33;9.70;;;17.80;58.30;;;;;;5037367;28;20182;-89
2023/05/03 09:48:15;;;;;;;10.90;10.00;;;17.90;59.20;;;;;;5036250;28;20177;-89
2023/05/03 09:50:42;;;;;;;10.87;9.83;;;17.80;57.20;;;;;;5037005;28;20221;-88
2023/05/03 09:53:07;;;;;;;11.27;10.00;;;17.70;57.20;;;;;;5061069;28;20283;-89
2023/05/03 09:55:38;;;;;;;12.30;9.47;;;17.70;57.80;;;;;;5078061;28;20880;-88
2023/05/03 09:58:05;;;;;;;11.67;9.70;;;17.90;57.90;;;;;;5055963;28;20207;-89
2023/05/03 10:00:39;;;;;;;10.80;9.85;;;18.20;56.20;;;;;;5054719;28;20976;-89
2023/05/03 10:03:23;;;;;;;10.73;9.73;;;18.40;55.60;;;;;;5053458;28;20211;-88
2023/05/03 10:05:52;;;;;;;15.13;9.70;;;18.60;53.90;;;;;;5057948;28;20193;-89
2023/05/03 10:08:36;;;;;;;9.95;9.05;;;18.50;54.90;;;;;;5072543;28;20250;-89
2023/05/03 10:11:07;;;;;;;11.27;10.15;;;18.60;55.80;;;;;;5068368;28;20263;-88
2023/05/03 10:13:34;;;;;;;10.43;9.43;;;18.60;54.40;;;;;;5051153;28;20206;-88
2023/05/03 10:16:07;;;;;;;10.50;9.50;;;18.70;54.70;;;;;;5053524;28;20211;-88
2023/05/03 10:18:36;;;;;;;10.70;9.80;;;18.80;54.20;;;;;;5054994;28;20214;-89
2023/05/03 10:21:08;;;;;;;11.85;9.68;;;18.80;55.70;;;;;;5056596;28;20215;-88
2023/05/03 10:23:34;;;;;;;20.10;10.40;;;19.10;53.70;;;;;;5057361;28;20176;-87
2023/05/03 10:26:06;;;;;;;10.10;9.23;;;19.20;52.90;;;;;;5057148;28;20164;-89
2023/05/03 10:28:36;;;;;;;11.45;10.35;;;19.40;53.20;;;;;;5057094;28;20180;-90
2023/05/03 10:31:02;;;;;;;10.45;9.57;;;19.40;53.00;;;;;;5055254;28;20180;-89
2023/05/03 10:33:29;;;;;;;21.23;11.07;;;19.60;52.30;;;;;;5028517;28;20191;-87
2023/05/03 10:35:56;;;;;;;9.68;8.77;;;19.80;51.60;;;;;;5028160;28;20241;-89
2023/05/03 10:38:24;;;;;;;10.73;9.73;;;19.90;50.70;;;;;;5032025;28;20194;-88
2023/05/03 10:40:51;;;;;;;9.98;9.13;;;20.00;50.70;;;;;;5044566;28;20232;-90
2023/05/03 10:43:31;;;;;;;10.48;9.68;;;20.10;50.20;;;;;;5049509;28;20191;-88
2023/05/03 10:46:05;;;;;;;10.65;9.57;;;20.30;49.70;;;;;;5026112;28;21249;-89
2023/05/03 10:48:32;;;;;;;10.20;9.20;;;20.30;50.60;;;;;;5049684;28;20718;-89
2023/05/03 10:51:37;;;;;;;9.35;8.55;;;20.40;49.50;;;;;;5046595;28;20192;-91
2023/05/03 10:54:03;;;;;;;10.52;9.70;;;20.70;48.30;;;;;;5030923;28;20191;-89
2023/05/03 10:56:29;;;;;;;9.82;8.88;;;20.50;47.70;;;;;;5030337;28;20203;-89
2023/05/03 10:58:57;;;;;;;9.63;8.88;;;20.60;47.80;;;;;;5043568;28;20215;-87
2023/05/03 11:01:25;;;;;;;11.05;9.15;;;21.00;47.30;;;;;;5028405;28;20257;-87
2023/05/03 11:04:09;;;;;;;10.73;9.35;;;20.80;47.60;;;;;;5044190;28;20739;-87
2023/05/03 11:06:37;;;;;;;9.93;8.73;;;21.10;47.00;;;;;;5040847;28;20210;-89
2023/05/03 11:09:08;;;;;;;9.48;8.57;;;21.10;46.80;;;;;;5041787;28;20796;-86
2023/05/03 11:11:38;;;;;;;10.43;9.45;;;21.00;47.40;;;;;;5046389;28;20189;-88
2023/05/03 11:14:06;;;;;;;10.00;9.00;;;21.20;47.40;;;;;;5031802;28;20865;-88
2023/05/03 11:16:31;;;;;;;8.95;8.10;;;21.60;44.00;;;;;;5041817;28;20214;-88
2023/05/03 11:18:59;;;;;;;8.77;8.07;;;22.00;44.50;;;;;;5044034;28;20206;-89
2023/05/03 11:21:25;;;;;;;10.35;9.50;;;21.90;43.30;;;;;;5053306;28;21073;-91
2023/05/03 11:23:50;;;;;;;9.88;9.07;;;22.30;42.10;;;;;;5035719;28;20202;-87
2023/05/03 11:26:17;;;;;;;8.55;7.88;;;22.20;43.80;;;;;;5054109;28;20696;-87
2023/05/03 11:28:43;;;;;;;8.68;8.07;;;22.30;43.20;;;;;;5044451;28;20188;-89
2023/05/03 11:31:10;;;;;;;10.07;9.07;;;22.30;42.40;;;;;;5051268;28;20192;-88
2023/05/03 11:33:40;;;;;;;9.68;8.70;;;22.50;42.70;;;;;;5045810;28;20754;-88
2023/05/03 11:36:08;;;;;;;15.07;8.80;;;22.10;43.30;;;;;;5047118;28;21508;-87
2023/05/03 11:38:37;;;;;;;9.15;8.15;;;21.70;44.80;;;;;;5049764;28;20247;-89
2023/05/03 11:41:19;;;;;;;10.15;9.10;;;21.90;43.90;;;;;;5043814;28;20206;-88
2023/05/03 11:43:47;;;;;;;9.20;8.40;;;21.80;44.00;;;;;;5047521;28;20182;-88
2023/05/03 11:46:26;;;;;;;8.55;7.82;;;21.50;44.40;;;;;;5049336;28;20215;-88
2023/05/03 11:48:55;;;;;;;9.43;8.55;;;21.50;44.00;;;;;;5045575;28;20191;-90
2023/05/03 11:51:22;;;;;;;7.72;7.13;;;21.30;44.00;;;;;;5044730;28;20191;-88
2023/05/03 11:54:05;;;;;;;8.30;7.60;;;21.60;44.10;;;;;;5044912;28;20193;-86
2023/05/03 11:56:36;;;;;;;9.85;7.30;;;21.80;43.30;;;;;;5047301;28;20721;-89
2023/05/03 11:59:03;;;;;;;9.18;8.38;;;21.90;42.40;;;;;;5034347;28;20194;-87
2023/05/03 12:01:32;;;;;;;9.23;8.32;;;21.70;41.80;;;;;;5047981;28;20728;-89
2023/05/03 12:04:05;;;;;;;9.48;8.70;;;22.20;42.70;;;;;;5047603;28;20211;-87
2023/05/03 12:06:51;;;;;;;7.85;7.15;;;23.00;39.50;;;;;;5026589;28;20246;-87
2023/05/03 12:09:22;;;;;;;9.88;9.00;;;23.40;39.30;;;;;;5022419;28;20185;-87
2023/05/03 12:11:53;;;;;;;9.30;8.60;;;23.20;38.40;;;;;;5039599;28;20414;-87
2023/05/03 12:14:20;;;;;;;10.52;9.52;;;23.30;38.50;;;;;;5021361;28;20643;-88
2023/05/03 12:16:57;;;;;;;8.85;8.15;;;23.20;37.50;;;;;;5023876;28;20222;-88
2023/05/03 12:19:27;;;;;;;9.27;8.48;;;23.20;39.20;;;;;;5052310;28;20202;-87
2023/05/03 12:21:53;;;;;;;9.07;8.38;;;23.10;39.10;;;;;;5071112;28;20207;-89
2023/05/03 12:24:22;;;;;;;9.52;8.73;;;23.60;38.00;;;;;;5048131;28;20664;-90
2023/05/03 12:26:51;;;;;;;11.30;9.45;;;23.70;36.80;;;;;;5054495;28;20250;-89
2023/05/03 12:29:18;;;;;;;9.60;8.70;;;23.70;37.30;;;;;;5055592;28;20177;-87
2023/05/03 12:31:44;;;;;;;8.52;7.70;;;23.60;36.60;;;;;;5074845;28;20183;-88
2023/05/03 12:34:10;;;;;;;9.30;8.50;;;23.50;38.40;;;;;;5055890;28;20187;-89
2023/05/03 12:36:36;;;;;;;8.23;7.63;;;23.80;36.40;;;;;;5057516;28;20599;-90
2023/05/03 12:39:02;;;;;;;7.63;7.13;;;23.60;37.40;;;;;;5074553;28;20182;-89
2023/05/03 12:41:30;;;;;;;9.60;8.88;;;24.30;37.50;;;;;;5056164;28;20210;-88
2023/05/03 12:44:03;;;;;;;19.98;9.60;;;24.30;35.50;;;;;;5071249;28;20195;-88
2023/05/03 12:46:28;;;;;;;13.07;8.15;;;23.80;36.30;;;;;;5036945;28;20212;-89
2023/05/03 12:48:54;;;;;;;10.23;9.23;;;24.20;36.10;;;;;;5053777;28;20254;-90
2023/05/03 12:51:20;;;;;;;8.10;7.43;;;24.20;35.50;;;;;;5034453;28;20188;-89